Time;durP1;ratioP1;P1;durP2;ratioP2;P2;SDS_P1;SDS_P2;PMS_P1;PMS_P2;Temp;Humidity;BMP_temperature;BMP_pressure;BME280_temperature;BME280_humidity;BME280_pressure;Samples;Min_cycle;Max_cycle;Signal;HPM_P1;HPM_P2
2024/03/17 00:01:24;;;;;;;16.50;6.55;;;;;;;9.17;100.00;99796.38;4815901;29;20090;-95
2024/03/17 00:09:34;;;;;;;;;;;;;;;;;;;;;
2024/03/17 00:50:44;;;;;;;5.30;2.75;;;;;;;8.77;100.00;99778.22;4862390;29;20052;-95
2024/03/17 01:02:51;;;;;;;;;;;;;;;8.75;100.00;99779.31;4843251;29;20531;-95
2024/03/17 01:06:50;;;;;;;9.65;3.05;;;;;;;8.79;100.00;99763.06;4793462;29;19917;-94
2024/03/17 01:10:22;;;;;;;;;;;;;;;;;;;;;
2024/03/17 01:14:24;;;;;;;7.35;2.30;;;;;;;8.85;100.00;99760.81;4731051;30;20051;-95
2024/03/17 01:17:50;;;;;;;10.93;3.78;;;;;;;8.80;100.00;99753.38;4641844;30;20118;-94
2024/03/17 02:04:21;;;;;;;21.25;5.28;;;;;;;8.49;100.00;99712.34;4744596;29;20101;-89
2024/03/17 02:11:53;;;;;;;20.45;5.13;;;;;;;8.49;100.00;99707.09;4759235;29;20399;-88
2024/03/17 02:15:56;;;;;;;11.23;4.97;;;;;;;8.40;100.00;99708.81;4764989;30;20982;-89
2024/03/17 02:23:28;;;;;;;121.05;6.88;;;;;;;8.18;100.00;99710.88;4672709;30;20499;-90
2024/03/17 02:26:35;;;;;;;26.55;4.35;;;;;;;8.18;100.00;99710.88;4643878;30;20050;-89
2024/03/17 02:59:26;;;;;;;8.50;4.28;;;;;;;8.29;100.00;99678.25;4741753;30;20051;-89
2024/03/17 03:11:04;;;;;;;5.97;3.15;;;;;;;8.40;100.00;99674.59;4813391;29;20129;-89
2024/03/17 03:13:33;;;;;;;5.85;3.55;;;;;;;8.49;100.00;99679.94;4790318;29;20058;-92
2024/03/17 03:16:35;;;;;;;6.40;3.33;;;;;;;8.56;100.00;99673.94;4799291;29;20074;-91
2024/03/17 03:20:02;;;;;;;5.82;3.55;;;;;;;8.41;100.00;99659.59;4862581;29;20049;-89
2024/03/17 03:22:44;;;;;;;12.07;4.78;;;;;;;8.43;100.00;99663.75;4856807;29;20033;-88
2024/03/17 03:25:58;;;;;;;12.32;5.60;;;;;;;8.40;100.00;99653.50;4851044;29;20044;-89
2024/03/17 03:28:54;;;;;;;11.65;6.35;;;;;;;8.53;100.00;99645.25;4844663;29;20492;-88
2024/03/17 03:32:10;;;;;;;15.95;6.47;;;;;;;8.70;100.00;99661.22;4844955;29;20041;-88
2024/03/17 03:34:56;;;;;;;17.17;7.00;;;;;;;8.79;100.00;99662.94;4844591;29;20060;-89
2024/03/17 03:37:32;;;;;;;22.05;6.75;;;;;;;8.86;100.00;99657.06;4829269;29;20033;-89
2024/03/17 03:40:21;;;;;;;14.48;5.90;;;;;;;8.89;100.00;99656.75;4858179;29;20045;-89
2024/03/17 03:48:16;;;;;;;18.30;6.53;;;;;;;8.98;100.00;99655.00;4877611;29;20103;-89
2024/03/17 03:50:45;;;;;;;13.35;6.85;;;;;;;9.00;100.00;99656.50;4866529;29;20041;-88
2024/03/17 03:53:11;;;;;;;17.05;6.30;;;;;;;9.00;100.00;99653.06;4832773;29;20089;-89
2024/03/17 03:55:37;;;;;;;20.15;8.10;;;;;;;9.07;100.00;99662.00;4831046;29;20041;-85
2024/03/17 03:58:31;;;;;;;14.52;7.60;;;;;;;9.14;100.00;99656.94;4826385;29;20033;-89
2024/03/17 04:01:05;;;;;;;15.40;6.68;;;;;;;9.13;100.00;99657.91;4840076;29;20093;-89
2024/03/17 04:03:31;;;;;;;17.58;7.80;;;;;;;9.16;100.00;99663.72;4835833;29;20037;-89
2024/03/17 04:06:10;;;;;;;16.05;6.50;;;;;;;9.25;100.00;99677.75;4845799;29;20416;-87
2024/03/17 04:08:41;;;;;;;18.13;7.38;;;;;;;9.24;100.00;99665.56;4843004;29;20039;-88
2024/03/17 04:11:07;;;;;;;16.58;7.35;;;;;;;9.27;100.00;99661.81;4842226;29;20068;-89
2024/03/17 04:13:33;;;;;;;11.93;6.93;;;;;;;9.29;100.00;99658.03;4844913;29;20037;-89
2024/03/17 04:16:06;;;;;;;17.00;6.75;;;;;;;9.38;100.00;99652.81;4830523;29;20191;-87
2024/03/17 04:18:34;;;;;;;18.30;6.82;;;;;;;9.38;100.00;99655.44;4836406;29;20498;-89
2024/03/17 04:21:06;;;;;;;16.00;6.35;;;;;;;9.42;100.00;99652.34;4849525;29;20420;-89
2024/03/17 04:23:38;;;;;;;14.50;6.05;;;;;;;9.46;100.00;99654.66;4849297;29;20045;-88
2024/03/17 04:26:07;;;;;;;12.27;5.63;;;;;;;9.47;100.00;99659.78;4824328;29;20037;-88
2024/03/17 04:28:33;;;;;;;24.58;6.28;;;;;;;9.52;100.00;99651.41;4835503;29;20457;-86
2024/03/17 04:31:05;;;;;;;16.48;5.22;;;;;;;9.54;100.00;99652.03;4859284;29;20048;-87
2024/03/17 04:33:36;;;;;;;17.85;5.55;;;;;;;9.54;100.00;99655.53;4867719;29;20036;-88
2024/03/17 04:36:04;;;;;;;13.38;5.47;;;;;;;9.56;100.00;99652.72;4865808;29;20037;-88
2024/03/17 04:38:32;;;;;;;11.15;5.07;;;;;;;9.59;100.00;99651.59;4867302;29;20040;-88
2024/03/17 04:41:04;;;;;;;16.92;5.25;;;;;;;9.58;100.00;99658.69;4844453;29;20064;-88
2024/03/17 04:43:55;;;;;;;17.48;5.70;;;;;;;9.61;100.00;99650.44;4851872;29;20060;-88
2024/03/17 04:46:22;;;;;;;14.02;5.05;;;;;;;9.54;100.00;99649.41;4851960;29;20079;-88
2024/03/17 04:48:48;;;;;;;14.93;4.53;;;;;;;9.55;100.00;99645.81;4855208;29;20072;-88
2024/03/17 04:51:17;;;;;;;9.18;4.15;;;;;;;9.57;100.00;99646.47;4880033;29;20065;-88
2024/03/17 04:54:07;;;;;;;11.90;4.20;;;;;;;9.59;100.00;99646.31;4864992;29;20056;-88
2024/03/17 04:56:33;;;;;;;12.15;4.40;;;;;;;9.51;100.00;99650.56;4863856;29;20120;-88
2024/03/17 04:58:59;;;;;;;11.25;4.20;;;;;;;9.53;100.00;99648.59;4852528;29;20044;-88
2024/03/17 05:01:31;;;;;;;11.57;3.55;;;;;;;9.52;100.00;99644.28;4866871;29;20037;-87
2024/03/17 05:03:57;;;;;;;12.57;3.60;;;;;;;9.57;100.00;99653.56;4864395;29;20052;-88
2024/03/17 05:06:22;;;;;;;11.65;3.08;;;;;;;9.56;100.00;99652.72;4880592;29;20036;-88
2024/03/17 05:08:48;;;;;;;12.52;3.10;;;;;;;9.53;100.00;99648.59;4866057;29;20260;-88
2024/03/17 05:11:16;;;;;;;12.63;3.17;;;;;;;9.53;100.00;99639.84;4845455;29;20048;-86
2024/03/17 05:13:42;;;;;;;10.02;3.50;;;;;;;9.54;100.00;99639.69;4867613;29;20043;-88
2024/03/17 05:16:10;;;;;;;13.55;3.25;;;;;;;9.55;100.00;99638.72;4864668;29;20044;-88
2024/03/17 05:18:46;;;;;;;9.60;3.05;;;;;;;9.51;100.00;99634.72;4864358;29;20057;-88
2024/03/17 05:21:14;;;;;;;16.42;3.13;;;;;;;9.52;100.00;99644.28;4847396;29;20061;-89
2024/03/17 05:24:04;;;;;;;13.65;2.80;;;;;;;9.56;100.00;99639.53;4864028;29;20068;-88
2024/03/17 05:26:33;;;;;;;17.90;3.05;;;;;;;9.53;100.00;99647.75;4897148;29;20083;-88
2024/03/17 05:29:02;;;;;;;9.73;2.60;;;;;;;9.58;100.00;99644.66;4862228;29;20044;-88
2024/03/17 05:31:31;;;;;;;15.88;3.95;;;;;;;9.50;100.00;99635.72;4867900;29;20096;-88
2024/03/17 05:33:57;;;;;;;9.35;2.60;;;;;;;9.54;100.00;99647.59;4862064;29;20159;-89
2024/03/17 05:36:23;;;;;;;12.15;2.92;;;;;;;9.57;100.00;99641.22;4852042;29;20076;-86
2024/03/17 05:38:49;;;;;;;11.75;3.58;;;;;;;9.58;100.00;99655.19;4873459;29;20089;-88
2024/03/17 05:41:15;;;;;;;16.92;3.17;;;;;;;9.51;100.00;99642.66;4843971;29;20463;-88
2024/03/17 05:43:44;;;;;;;14.15;3.80;;;;;;;9.55;100.00;99646.63;4844219;29;20563;-87
2024/03/17 05:46:11;;;;;;;17.95;3.38;;;;;;;9.55;100.00;99643.16;4852388;29;20105;-87
2024/03/17 05:48:40;;;;;;;16.67;3.58;;;;;;;9.57;100.00;99643.00;4829863;29;20044;-88
2024/03/17 05:51:06;;;;;;;21.27;4.63;;;;;;;9.57;100.00;99643.00;4828697;29;20036;-88
2024/03/17 05:53:33;;;;;;;21.52;3.92;;;;;;;9.58;100.00;99647.28;4844960;29;20161;-88
2024/03/17 05:56:01;;;;;;;20.33;4.28;;;;;;;9.63;100.00;99651.13;4847857;29;20098;-88
2024/03/17 05:58:30;;;;;;;14.82;3.63;;;;;;;9.63;100.00;99647.66;4830560;29;20538;-88
2024/03/17 06:01:19;;;;;;;24.55;4.47;;;;;;;9.66;100.00;99642.88;4833199;29;20032;-88
2024/03/17 06:03:45;;;;;;;20.95;4.30;;;;;;;9.68;100.00;99645.38;4844795;29;20048;-88
2024/03/17 06:06:11;;;;;;;18.20;3.95;;;;;;;9.67;100.00;99639.25;4830985;29;20040;-87
2024/03/17 06:08:38;;;;;;;21.20;3.30;;;;;;;9.69;100.00;99631.19;4844010;29;20033;-86
2024/03/17 06:11:25;;;;;;;24.08;4.32;;;;;;;9.66;100.00;99613.88;4844793;29;20084;-89
2024/03/17 06:13:51;;;;;;;21.23;3.10;;;;;;;9.69;100.00;99612.72;4844657;29;20395;-88
2024/03/17 06:16:17;;;;;;;15.77;3.53;;;;;;;9.70;100.00;99616.19;4855733;29;20036;-88
2024/03/17 06:18:43;;;;;;;18.00;3.88;;;;;;;9.72;100.00;99622.13;4858799;29;20049;-88
2024/03/17 06:21:09;;;;;;;20.67;3.47;;;;;;;9.74;100.00;99620.16;4840887;29;20041;-88
2024/03/17 06:23:37;;;;;;;14.98;3.67;;;;;;;9.77;100.00;99611.91;4841179;29;20499;-87
2024/03/17 06:26:05;;;;;;;17.77;3.38;;;;;;;9.80;100.00;99606.31;4839342;29;20053;-88
2024/03/17 06:28:34;;;;;;;13.98;3.97;;;;;;;9.79;100.00;99605.47;4830462;29;20061;-88
2024/03/17 06:31:10;;;;;;;10.27;2.47;;;;;;;9.80;100.00;99616.88;4859162;29;20495;-88
2024/03/17 06:33:36;;;;;;;10.38;2.60;;;;;;;9.80;100.00;99619.50;4860662;29;20051;-87
2024/03/17 06:36:06;;;;;;;11.32;2.70;;;;;;;9.75;100.00;99596.25;4879017;29;20028;-87
2024/03/17 06:38:32;;;;;;;13.63;3.03;;;;;;;9.80;100.00;99607.16;4863156;29;20494;-89
2024/03/17 06:40:58;;;;;;;14.60;3.38;;;;;;;9.75;100.00;99601.50;4879292;29;20439;-88
2024/03/17 06:43:23;;;;;;;11.43;2.50;;;;;;;9.78;100.00;99603.00;4909478;29;20040;-88
2024/03/17 06:46:01;;;;;;;14.13;3.00;;;;;;;9.82;100.00;99600.88;4888635;29;20494;-86
2024/03/17 06:48:51;;;;;;;16.65;2.60;;;;;;;9.79;100.00;99602.84;4890188;29;20502;-87
2024/03/17 06:51:16;;;;;;;10.75;2.60;;;;;;;9.73;100.00;99606.13;4867621;29;20053;-88
2024/03/17 06:53:42;;;;;;;12.18;2.60;;;;;;;9.74;100.00;99610.44;4890695;29;20053;-86
2024/03/17 07:00:16;;;;;;;10.50;2.20;;;;;;;9.75;100.00;99606.78;4872363;29;20489;-88
2024/03/17 07:02:53;;;;;;;10.73;2.20;;;;;;;9.80;100.00;99604.50;4861274;29;20041;-88
2024/03/17 07:05:32;;;;;;;13.15;2.53;;;;;;;9.77;100.00;99601.34;4874083;29;20140;-88
2024/03/17 07:08:01;;;;;;;9.70;2.30;;;;;;;9.80;100.00;99607.16;4846867;29;20029;-88
2024/03/17 07:10:27;;;;;;;12.40;2.05;;;;;;;9.78;100.00;99589.81;4844672;29;20048;-87
2024/03/17 07:13:15;;;;;;;8.38;1.67;;;;;;;9.85;100.00;99590.00;4873262;29;20049;-87
2024/03/17 07:15:47;;;;;;;11.73;2.03;;;;;;;9.85;100.00;99588.19;4875714;29;20135;-85
2024/03/17 07:18:13;;;;;;;15.82;2.70;;;;;;;9.87;100.00;99595.94;4853758;29;20097;-88
2024/03/17 07:20:39;;;;;;;10.68;2.58;;;;;;;9.89;100.00;99594.78;4878076;29;20044;-83
2024/03/17 07:23:33;;;;;;;13.38;2.20;;;;;;;9.93;100.00;99593.50;4847721;29;20510;-88
2024/03/17 07:26:50;;;;;;;10.15;2.20;;;;;;;9.97;100.00;99590.53;4860209;29;20184;-83
2024/03/17 07:29:41;;;;;;;9.02;1.70;;;;;;;9.97;100.00;99599.25;4875282;29;20072;-83
2024/03/17 07:32:39;;;;;;;8.68;1.52;;;;;;;9.91;100.00;99598.09;4874003;29;20048;-84
2024/03/17 07:35:05;;;;;;;15.00;2.28;;;;;;;10.00;100.00;99614.78;4888662;29;20390;-84
2024/03/17 07:37:46;;;;;;;9.20;2.22;;;;;;;9.99;100.00;99605.22;4885398;29;20562;-85
2024/03/17 07:40:15;;;;;;;22.73;3.15;;;;;;;10.00;100.00;99606.84;4871823;29;20444;-84
2024/03/17 07:42:42;;;;;;;16.20;2.55;;;;;;;10.07;100.00;99609.69;4861060;29;20086;-84
2024/03/17 07:45:08;;;;;;;16.88;2.63;;;;;;;10.11;100.00;99612.84;4859475;29;20064;-84
2024/03/17 07:47:37;;;;;;;10.27;2.08;;;;;;;10.15;100.00;99616.78;4857766;29;20044;-83
2024/03/17 07:50:06;;;;;;;16.48;3.05;;;;;;;10.19;100.00;99610.22;4844012;29;20043;-83
2024/03/17 07:52:32;;;;;;;16.38;2.75;;;;;;;10.23;100.00;99611.53;4860870;29;20040;-84
2024/03/17 07:54:58;;;;;;;11.10;2.33;;;;;;;10.23;100.00;99606.25;4863003;29;20506;-83
2024/03/17 07:57:23;;;;;;;17.33;2.97;;;;;;;10.29;100.00;99604.75;4880905;29;20551;-83
2024/03/17 07:59:52;;;;;;;12.23;1.92;;;;;;;10.25;100.00;99595.53;4850710;29;20037;-83
2024/03/17 08:02:18;;;;;;;18.52;2.08;;;;;;;10.33;100.00;99598.19;4879741;29;20469;-84
2024/03/17 08:04:47;;;;;;;14.93;2.20;;;;;;;10.37;100.00;99596.00;4880624;29;20068;-84
2024/03/17 08:07:13;;;;;;;13.18;2.20;;;;;;;10.41;100.00;99585.00;4864641;29;20087;-83
2024/03/17 08:09:49;;;;;;;10.63;1.50;;;;;;;10.51;100.00;99595.41;4891398;29;20051;-85
2024/03/17 08:12:27;;;;;;;10.95;1.92;;;;;;;10.51;100.00;99594.59;4865414;29;20534;-85
2024/03/17 08:15:15;;;;;;;8.50;1.50;;;;;;;10.57;100.00;99593.94;4884378;29;20049;-84
2024/03/17 08:17:42;;;;;;;6.53;1.50;;;;;;;10.79;100.00;99595.06;4862878;29;20092;-83
2024/03/17 08:20:09;;;;;;;9.63;1.55;;;;;;;10.84;100.00;99588.44;4857378;29;20071;-84
2024/03/17 08:22:42;;;;;;;6.43;1.15;;;;;;;11.03;100.00;99593.38;4880446;29;20036;-86
2024/03/17 08:25:29;;;;;;;4.68;0.90;;;;;;;11.04;100.00;99571.22;4863892;29;20505;-83
2024/03/17 08:27:57;;;;;;;12.43;1.50;;;;;;;11.07;100.00;99578.00;4895102;29;20048;-84
2024/03/17 08:30:42;;;;;;;5.63;0.95;;;;;;;11.09;100.00;99568.06;4878204;29;20052;-84
2024/03/17 08:33:11;;;;;;;6.88;1.77;;;;;;;11.11;100.00;99566.09;4874110;29;20518;-83
2024/03/17 08:35:37;;;;;;;4.22;0.70;;;;;;;11.09;100.00;99567.25;4882225;29;20036;-84
2024/03/17 08:38:03;;;;;;;1.88;0.50;;;;;;;11.18;100.00;99570.72;4880168;29;20032;-83
2024/03/17 08:40:29;;;;;;;6.22;1.17;;;;;;;11.22;100.00;99564.06;4877838;29;20368;-85
2024/03/17 08:43:13;;;;;;;12.35;1.52;;;;;;;11.34;100.00;99572.47;4871781;29;20033;-84
2024/03/17 08:45:39;;;;;;;5.13;1.67;;;;;;;11.33;100.00;99582.22;4872990;29;20159;-85
2024/03/17 08:48:20;;;;;;;3.58;0.65;;;;;;;11.30;100.00;99577.28;4880256;29;20060;-85
2024/03/17 08:51:10;;;;;;;4.18;0.60;;;;;;;11.37;100.00;99580.88;4865295;29;20052;-85
2024/03/17 08:53:48;;;;;;;6.45;1.00;;;;;;;11.50;100.00;99584.78;4863172;29;20032;-84
2024/03/17 08:56:25;;;;;;;7.07;1.30;;;;;;;11.76;100.00;99581.88;4867094;29;20423;-85
2024/03/17 08:59:20;;;;;;;6.10;1.10;;;;;;;11.83;100.00;99573.25;4847752;29;20055;-86
2024/03/17 09:05:16;;;;;;;9.90;1.08;;;;;;;12.04;100.00;99560.19;4873604;29;20063;-86
2024/03/17 09:08:14;;;;;;;2.92;0.52;;;;;;;12.07;100.00;99563.50;4874336;29;20126;-84
2024/03/17 09:11:15;;;;;;;4.72;1.00;;;;;;;11.94;100.00;99553.47;4899392;29;20390;-85
2024/03/17 09:13:44;;;;;;;7.97;0.90;;;;;;;11.88;100.00;99561.13;4889642;29;20028;-85
2024/03/17 09:16:50;;;;;;;6.57;1.25;;;;;;;11.91;100.00;99563.41;4864568;29;20043;-85
2024/03/17 09:19:17;;;;;;;6.75;1.30;;;;;;;11.97;100.00;99567.19;4874782;29;21050;-83
2024/03/17 09:21:52;;;;;;;10.07;1.58;;;;;;;12.07;100.00;99563.50;4877267;29;20036;-84
2024/03/17 09:24:42;;;;;;;6.57;1.00;;;;;;;12.02;100.00;99569.31;4875203;29;20647;-85
2024/03/17 09:31:36;;;;;;;4.90;0.82;;;;;;;11.73;100.00;99570.81;4876047;29;20044;-82
2024/03/17 09:34:30;;;;;;;5.85;1.52;;;;;;;11.60;100.00;99558.13;4843999;29;20084;-84
2024/03/17 09:37:03;;;;;;;4.95;1.05;;;;;;;11.64;100.00;99578.78;4854186;29;20056;-86
2024/03/17 09:39:56;;;;;;;6.22;0.80;;;;;;;11.50;100.00;99560.97;4869591;29;20074;-86
2024/03/17 09:42:58;;;;;;;7.60;1.15;;;;;;;11.45;100.00;99560.69;4859969;29;20092;-84
2024/03/17 09:45:38;;;;;;;3.45;0.80;;;;;;;11.35;100.00;99558.25;4861135;29;20092;-83
2024/03/17 09:48:49;;;;;;;5.20;0.98;;;;;;;11.35;100.00;99551.13;4855224;29;20404;-85
2024/03/17 09:51:49;;;;;;;8.13;1.60;;;;;;;11.37;100.00;99558.91;4883193;29;20028;-83
2024/03/17 09:55:24;;;;;;;4.80;0.80;;;;;;;11.33;100.00;99573.44;4867294;29;20032;-84
2024/03/17 09:59:13;;;;;;;3.95;0.73;;;;;;;11.43;100.00;99583.84;4826131;29;20143;-85
2024/03/17 10:01:59;;;;;;;6.68;0.90;;;;;;;11.40;100.00;99558.56;4837184;29;20054;-83
2024/03/17 10:05:02;;;;;;;9.48;1.13;;;;;;;11.45;100.00;99577.38;4861996;29;20055;-85
2024/03/17 10:07:56;;;;;;;5.97;0.63;;;;;;;11.50;100.00;99582.97;4856440;29;20028;-84
2024/03/17 10:10:45;;;;;;;7.35;0.90;;;;;;;11.53;100.00;99574.69;4872426;29;20044;-82
2024/03/17 10:13:27;;;;;;;6.78;0.65;;;;;;;11.61;100.00;99591.56;4880171;29;20040;-82
2024/03/17 10:16:21;;;;;;;5.20;0.90;;;;;;;11.63;100.00;99592.19;4858292;29;20040;-84
2024/03/17 10:19:15;;;;;;;5.78;1.13;;;;;;;11.72;100.00;99577.09;4875663;29;20068;-86
2024/03/17 10:22:14;;;;;;;3.40;0.75;;;;;;;11.73;100.00;99582.22;4853669;29;20049;-85
2024/03/17 10:25:12;;;;;;;3.40;0.80;;;;;;;11.82;100.00;99576.91;4782105;29;20065;-85
2024/03/17 10:31:57;;;;;;;3.92;0.65;;;;;;;11.92;100.00;99590.72;4874916;29;20104;-83
2024/03/17 10:35:03;;;;;;;1.95;0.20;;;;;;;12.03;100.00;99582.38;4852831;29;20044;-86
2024/03/17 10:37:32;;;;;;;2.45;0.45;;;;;;;12.14;100.00;99577.72;4897987;29;20032;-83
2024/03/17 10:43:45;;;;;;;1.92;0.35;;;;;;;12.33;100.00;99587.00;4833654;29;20048;-85
2024/03/17 10:46:38;;;;;;;3.28;0.30;;;;;;;12.45;100.00;99584.78;4849057;29;20123;-85
2024/03/17 10:49:16;;;;;;;2.45;0.30;;;;;;;12.72;100.00;99582.56;4860693;29;20028;-85
2024/03/17 10:52:46;;;;;;;2.10;0.20;;;;;;;12.86;100.00;99588.91;4874441;29;20424;-87
2024/03/17 10:56:18;;;;;;;1.27;0.10;;;;;;;12.73;100.00;99601.94;4855022;29;20028;-85
2024/03/17 10:58:52;;;;;;;0.05;0.00;;;;;;;12.68;100.00;99597.16;4853263;29;20495;-85
2024/03/17 11:02:14;;;;;;;0.52;0.05;;;;;;;12.65;100.00;99598.34;4861668;29;20056;-86
2024/03/17 11:04:44;;;;;;;0.10;0.10;;;;;;;12.46;100.00;99602.31;4856744;29;20043;-85
2024/03/17 11:07:46;;;;;;;0.38;0.00;;;;;;;12.45;100.00;99597.19;4876060;29;20127;-83
2024/03/17 11:11:03;;;;;;;0.03;0.00;;;;;;;12.28;100.00;99619.34;4875579;29;20053;-84
2024/03/17 11:13:39;;;;;;;0.00;0.00;;;;;;;12.09;100.00;99594.13;4874618;29;20139;-81
2024/03/17 11:16:28;;;;;;;0.00;0.00;;;;;;;11.96;100.00;99605.25;4863467;29;20032;-82
2024/03/17 11:19:09;;;;;;;0.10;0.03;;;;;;;11.85;100.00;99624.22;4864084;29;20033;-84
2024/03/17 11:21:49;;;;;;;0.00;0.00;;;;;;;11.78;100.00;99630.16;4880329;29;20336;-83
2024/03/17 11:24:22;;;;;;;1.00;0.05;;;;;;;11.69;100.00;99638.34;4853893;29;20053;-83
2024/03/17 11:26:51;;;;;;;0.22;0.00;;;;;;;11.62;100.00;99631.09;4857586;29;20071;-84
2024/03/17 11:29:40;;;;;;;0.40;0.10;;;;;;;11.59;100.00;99634.06;4881918;29;20107;-83
2024/03/17 11:32:28;;;;;;;0.00;0.00;;;;;;;11.51;100.00;99642.03;4862066;29;20040;-82
2024/03/17 11:35:13;;;;;;;3.25;2.13;;;;;;;11.42;100.00;99633.28;4861136;29;20104;-83
2024/03/17 11:37:53;;;;;;;0.65;0.20;;;;;;;11.35;100.00;99634.97;4878409;29;20044;-84
2024/03/17 11:40:32;;;;;;;0.82;0.40;;;;;;;11.24;100.00;99639.63;4863783;29;20502;-87
2024/03/17 11:43:06;;;;;;;1.48;0.30;;;;;;;11.29;100.00;99653.16;4858996;29;20132;-85
2024/03/17 11:45:45;;;;;;;0.50;0.10;;;;;;;11.14;100.00;99654.84;4887658;29;20048;-84
2024/03/17 11:48:14;;;;;;;0.47;0.10;;;;;;;11.10;100.00;99651.69;4860799;29;20653;-82
2024/03/17 11:50:45;;;;;;;0.60;0.10;;;;;;;11.00;100.00;99659.00;4895943;29;20135;-82
2024/03/17 11:57:01;;;;;;;0.80;0.45;;;;;;;10.82;100.00;99673.22;4862828;29;20071;-83
2024/03/17 11:59:30;;;;;;;0.80;0.40;;;;;;;10.78;100.00;99658.69;4847695;29;20060;-84
2024/03/17 12:02:02;;;;;;;0.93;0.17;;;;;;;10.70;100.00;99675.38;4848094;29;20147;-86
2024/03/17 12:04:42;;;;;;;6.05;0.38;;;;;;;10.58;100.00;99692.50;4874946;29;20055;-84
2024/03/17 12:07:18;;;;;;;2.83;0.40;;;;;;;10.58;100.00;99682.78;4842674;29;20040;-84
2024/03/17 12:09:48;;;;;;;4.82;0.50;;;;;;;10.61;100.00;99689.53;4873257;29;20036;-86
2024/03/17 12:12:19;;;;;;;5.68;1.38;;;;;;;10.61;100.00;99678.97;4890178;29;20048;-86
2024/03/17 12:14:55;;;;;;;6.03;1.02;;;;;;;10.63;100.00;99685.75;4875468;29;20104;-85
2024/03/17 12:17:27;;;;;;;5.22;0.95;;;;;;;10.68;100.00;99695.84;4881412;29;20517;-84
2024/03/17 12:23:37;;;;;;;6.88;0.73;;;;;;;10.80;100.00;99704.25;4869768;29;20555;-84
2024/03/17 12:26:24;;;;;;;5.60;0.80;;;;;;;10.85;100.00;99704.59;4852488;29;20076;-86
2024/03/17 12:28:54;;;;;;;5.57;0.63;;;;;;;10.97;100.00;99702.47;4883964;29;20112;-84
2024/03/17 12:31:40;;;;;;;3.83;0.95;;;;;;;10.97;100.00;99697.19;4856319;29;20482;-85
2024/03/17 12:34:18;;;;;;;10.20;1.10;;;;;;;11.06;100.00;99690.06;4858079;29;20041;-84
2024/03/17 12:37:06;;;;;;;8.07;1.25;;;;;;;11.05;100.00;99704.28;4886247;29;20823;-86
2024/03/17 12:40:31;;;;;;;6.63;1.05;;;;;;;11.15;100.00;99698.81;4865841;29;20428;-84
2024/03/17 12:43:15;;;;;;;4.00;0.65;;;;;;;11.25;100.00;99707.41;4865293;29;20040;-87
2024/03/17 12:45:55;;;;;;;10.70;1.60;;;;;;;11.29;100.00;99713.19;4863409;29;20097;-87
2024/03/17 12:48:27;;;;;;;9.43;1.20;;;;;;;11.31;100.00;99705.91;4847071;29;20443;-86
2024/03/17 12:51:04;;;;;;;5.57;1.00;;;;;;;11.47;100.00;99704.22;4865206;29;20430;-87
2024/03/17 12:53:30;;;;;;;12.13;1.35;;;;;;;11.61;100.00;99706.19;4879268;29;20044;-87
2024/03/17 13:01:25;;;;;;;8.52;1.13;;;;;;;11.99;100.00;99696.81;4865351;29;20036;-87
2024/03/17 13:03:51;;;;;;;14.90;1.95;;;;;;;11.97;100.00;99701.44;4871711;29;20051;-86
2024/03/17 13:06:26;;;;;;;10.80;1.58;;;;;;;11.96;100.00;99703.25;4859883;29;20506;-87
2024/03/17 13:08:51;;;;;;;12.52;1.80;;;;;;;11.91;100.00;99706.41;4868370;29;20060;-87
2024/03/17 13:11:20;;;;;;;11.27;1.48;;;;;;;11.95;100.00;99703.41;4876718;29;20095;-89
2024/03/17 13:13:46;;;;;;;11.85;1.33;;;;;;;11.88;100.00;99698.81;4869431;29;20045;-84
2024/03/17 13:16:13;;;;;;;10.93;1.73;;;;;;;11.86;100.00;99702.63;4843368;29;20164;-85
2024/03/17 13:18:44;;;;;;;9.75;1.40;;;;;;;11.79;100.00;99702.50;4890137;29;20035;-84
2024/03/17 13:21:27;;;;;;;15.88;2.25;;;;;;;11.75;100.00;99723.16;4880456;29;20607;-82
2024/03/17 13:23:53;;;;;;;16.17;1.85;;;;;;;11.65;100.00;99714.63;4853300;29;20036;-83
2024/03/17 13:26:19;;;;;;;17.30;2.17;;;;;;;11.58;100.00;99719.75;4874952;29;20517;-86
2024/03/17 13:28:52;;;;;;;11.55;1.90;;;;;;;11.51;100.00;99722.28;4847648;29;20040;-86
2024/03/17 13:31:24;;;;;;;16.08;2.30;;;;;;;11.53;100.00;99714.16;4865346;29;20151;-83
2024/03/17 13:33:50;;;;;;;15.38;1.98;;;;;;;11.47;100.00;99717.44;4876218;29;20063;-85
2024/03/17 13:36:18;;;;;;;14.07;2.35;;;;;;;11.61;100.00;99718.59;4844448;29;20068;-84
2024/03/17 13:38:44;;;;;;;16.10;2.92;;;;;;;11.60;100.00;99711.63;4874866;29;20033;-84
2024/03/17 13:41:16;;;;;;;10.27;1.63;;;;;;;11.68;100.00;99718.72;4874040;29;20052;-87
2024/03/17 13:43:44;;;;;;;15.43;1.83;;;;;;;11.69;100.00;99715.09;4840365;29;20037;-84
2024/03/17 13:46:15;;;;;;;14.63;2.65;;;;;;;11.82;100.00;99718.03;4881530;29;20487;-87
2024/03/17 13:48:41;;;;;;;11.43;1.95;;;;;;;11.96;100.00;99711.19;4889191;29;20171;-83
2024/03/17 13:51:16;;;;;;;17.52;2.88;;;;;;;12.09;100.00;99709.88;4863220;29;20060;-86
2024/03/17 13:53:45;;;;;;;19.45;2.65;;;;;;;12.20;100.00;99716.59;4889677;29;20045;-84
2024/03/17 13:56:13;;;;;;;17.20;2.35;;;;;;;12.27;100.00;99701.66;4864559;29;20100;-86
2024/03/17 13:58:39;;;;;;;11.77;1.73;;;;;;;12.35;100.00;99708.72;4891015;29;20040;-85
2024/03/17 14:01:05;;;;;;;11.00;2.30;;;;;;;12.38;100.00;99711.03;4876764;29;20045;-83
2024/03/17 14:03:33;;;;;;;17.92;2.22;;;;;;;12.46;100.00;99708.34;4858435;29;20044;-85
2024/03/17 14:05:59;;;;;;;14.63;1.83;;;;;;;12.60;100.00;99705.91;4861558;29;20041;-85
2024/03/17 14:09:14;;;;;;;10.63;2.15;;;;;;;12.72;100.00;99696.59;4843643;29;20052;-84
2024/03/17 14:11:43;;;;;;;10.05;1.92;;;;;;;12.75;100.00;99706.84;4841074;29;20040;-86
2024/03/17 14:14:10;;;;;;;13.15;1.60;;;;;;;12.81;100.00;99699.97;4847659;29;20035;-84
2024/03/17 14:16:40;;;;;;;8.65;1.60;;;;;;;12.77;100.00;99699.50;4839561;29;20068;-86
2024/03/17 14:19:09;;;;;;;16.42;1.77;;;;;;;12.65;100.00;99695.63;4872612;29;20573;-83
2024/03/17 14:21:35;;;;;;;10.65;2.17;;;;;;;12.58;100.00;99705.28;4846179;29;20046;-82
2024/03/17 14:24:06;;;;;;;7.72;1.40;;;;;;;12.53;100.00;99705.81;4872727;29;20051;-88
2024/03/17 14:26:35;;;;;;;13.30;1.25;;;;;;;12.59;100.00;99705.13;4870173;29;20040;-86
2024/03/17 14:29:02;;;;;;;8.27;1.58;;;;;;;12.51;100.00;99710.47;4877930;29;20079;-85
2024/03/17 14:31:37;;;;;;;11.40;1.55;;;;;;;12.58;100.00;99708.75;4857140;29;20048;-85
2024/03/17 14:34:06;;;;;;;13.25;1.85;;;;;;;12.55;100.00;99703.00;4892963;29;20061;-87
2024/03/17 14:36:35;;;;;;;13.55;1.83;;;;;;;12.49;100.00;99697.38;4846951;29;20041;-87
2024/03/17 14:39:07;;;;;;;14.65;2.25;;;;;;;12.55;100.00;99697.69;4877283;29;20051;-86
2024/03/17 14:41:33;;;;;;;11.68;1.65;;;;;;;12.71;100.00;99691.47;4845141;29;20439;-83
2024/03/17 14:44:00;;;;;;;7.45;1.08;;;;;;;12.86;100.00;99684.38;4861912;29;20044;-80
2024/03/17 14:46:31;;;;;;;10.13;1.50;;;;;;;13.09;100.00;99688.00;4883947;29;20396;-86
2024/03/17 14:48:57;;;;;;;8.95;1.35;;;;;;;13.18;100.00;99684.25;4872731;29;20051;-86
2024/03/17 14:51:23;;;;;;;5.65;0.80;;;;;;;13.23;100.00;99675.75;4860317;29;20044;-83
2024/03/17 14:53:52;;;;;;;9.65;1.48;;;;;;;13.30;100.00;99681.19;4859061;29;20036;-87
2024/03/17 14:56:18;;;;;;;9.35;0.95;;;;;;;13.36;100.00;99683.09;4871652;29;20042;-86
2024/03/17 14:58:50;;;;;;;8.85;1.50;;;;;;;13.36;100.00;99685.75;4876307;29;20128;-82
2024/03/17 15:01:16;;;;;;;7.78;1.42;;;;;;;13.28;100.00;99690.13;4889943;29;20139;-83
2024/03/17 15:03:45;;;;;;;7.35;1.23;;;;;;;13.25;100.00;99695.78;4872201;29;20047;-86
2024/03/17 15:06:15;;;;;;;4.72;0.98;;;;;;;13.30;100.00;99697.91;4863423;29;20032;-86
2024/03/17 15:08:43;;;;;;;5.03;1.77;;;;;;;13.32;100.00;99687.09;4845674;29;20051;-83
2024/03/17 15:11:09;;;;;;;8.60;1.88;;;;;;;13.39;100.00;99702.13;4859375;29;20033;-85
2024/03/17 15:13:36;;;;;;;6.18;0.98;;;;;;;13.48;100.00;99702.03;4857818;29;20518;-81
2024/03/17 15:16:05;;;;;;;3.42;0.77;;;;;;;13.50;100.00;99695.59;4861460;29;20140;-85
2024/03/17 15:18:33;;;;;;;5.78;0.95;;;;;;;13.50;100.00;99698.25;4844489;29;20067;-86
2024/03/17 15:21:04;;;;;;;4.53;0.80;;;;;;;13.45;100.00;99699.75;4844369;29;20040;-85